Time;durP1;ratioP1;P1;durP2;ratioP2;P2;SDS_P1;SDS_P2;PMS_P1;PMS_P2;Temp;Humidity;BMP_temperature;BMP_pressure;BME280_temperature;BME280_humidity;BME280_pressure;Samples;Min_cycle;Max_cycle;Signal;HPM_P1;HPM_P2
2023/01/22 00:02:01;;;;;;;65.90;19.75;;;;;;;-3.27;100.00;103364.19;4986158;28;20037;-93
2023/01/22 00:04:26;;;;;;;58.70;17.90;;;;;;;-3.25;100.00;103377.88;5002295;28;20034;-94
2023/01/22 00:06:52;;;;;;;61.22;19.10;;;;;;;-3.30;100.00;103369.06;5005379;28;20033;-94
2023/01/22 00:09:21;;;;;;;58.17;17.52;;;;;;;-3.35;100.00;103370.38;5001366;28;20032;-93
2023/01/22 00:11:47;;;;;;;62.45;19.33;;;;;;;-3.37;100.00;103373.56;5002308;28;20029;-93
2023/01/22 00:14:13;;;;;;;67.72;20.13;;;;;;;-3.40;100.00;103370.78;4986722;28;20391;-93
2023/01/22 00:16:40;;;;;;;67.55;19.88;;;;;;;-3.36;100.00;103380.41;4988378;28;20514;-93
2023/01/22 00:19:05;;;;;;;58.63;17.83;;;;;;;-3.40;100.00;103373.31;5001432;28;20066;-93
2023/01/22 00:21:31;;;;;;;61.28;19.42;;;;;;;-3.41;100.00;103379.19;4985282;28;20040;-93
2023/01/22 00:23:56;;;;;;;63.75;18.95;;;;;;;-3.42;100.00;103383.38;4985055;28;20072;-93
2023/01/22 00:26:22;;;;;;;58.72;18.23;;;;;;;-3.45;100.00;103374.66;4987521;28;20041;-93
2023/01/22 00:28:47;;;;;;;57.90;18.75;;;;;;;-3.51;100.00;103370.03;4985918;28;20450;-92
2023/01/22 00:31:14;;;;;;;60.80;17.80;;;;;;;-3.48;100.00;103372.75;5002373;28;20049;-93
2023/01/22 00:33:40;;;;;;;60.20;18.08;;;;;;;-3.48;100.00;103371.91;4999234;28;20033;-93
2023/01/22 00:36:12;;;;;;;55.95;18.25;;;;;;;-3.50;100.00;103366.72;4986600;28;20029;-92
2023/01/22 00:38:37;;;;;;;57.75;18.08;;;;;;;-3.58;100.00;103357.66;4982776;28;20069;-93
2023/01/22 00:41:04;;;;;;;62.00;19.50;;;;;;;-3.56;100.00;103363.75;4983109;28;20027;-93
2023/01/22 00:43:37;;;;;;;57.60;17.88;;;;;;;-3.51;100.00;103362.41;4995293;28;20399;-92
2023/01/22 00:46:03;;;;;;;58.50;17.02;;;;;;;-3.63;100.00;103347.19;4996322;28;20459;-93
2023/01/22 00:48:28;;;;;;;63.75;18.88;;;;;;;-3.54;100.00;103364.72;4998965;28;20491;-93
2023/01/22 00:50:54;;;;;;;59.33;17.88;;;;;;;-3.56;100.00;103356.13;4983286;28;20026;-92
2023/01/22 00:53:19;;;;;;;61.15;19.13;;;;;;;-3.63;100.00;103343.78;5004521;28;20392;-92
2023/01/22 00:55:52;;;;;;;57.95;18.58;;;;;;;-3.56;100.00;103353.59;4983726;28;20030;-94
2023/01/22 00:58:18;;;;;;;62.40;19.48;;;;;;;-3.52;100.00;103364.81;4984636;28;20029;-92
2023/01/22 01:00:44;;;;;;;59.22;18.23;;;;;;;-3.58;100.00;103352.59;5000282;28;20549;-93
2023/01/22 01:03:31;;;;;;;65.50;19.63;;;;;;;-3.61;100.00;103342.22;4986241;28;20030;-93
2023/01/22 01:06:15;;;;;;;63.38;19.17;;;;;;;-3.59;100.00;103349.16;4973973;28;20046;-92
2023/01/22 01:08:42;;;;;;;61.75;18.00;;;;;;;-3.62;100.00;103338.78;4984931;28;20037;-93
2023/01/22 01:11:18;;;;;;;65.18;19.30;;;;;;;-3.62;100.00;103343.00;5004699;28;20030;-93
2023/01/22 01:13:43;;;;;;;61.15;19.23;;;;;;;-3.65;100.00;103342.78;4976948;28;20479;-91
2023/01/22 01:16:23;;;;;;;65.68;18.23;;;;;;;-3.75;100.00;103330.19;4991128;28;20021;-93
2023/01/22 01:18:51;;;;;;;60.30;18.33;;;;;;;-3.70;100.00;103339.91;4977904;28;20084;-93
2023/01/22 01:21:18;;;;;;;64.45;19.42;;;;;;;-3.69;100.00;103348.41;5003961;28;20038;-93
2023/01/22 01:23:44;;;;;;;66.65;18.95;;;;;;;-3.80;100.00;103337.44;4984715;28;20030;-92
2023/01/22 01:26:12;;;;;;;64.25;18.70;;;;;;;-3.85;100.00;103322.69;4983225;28;20030;-92
2023/01/22 01:28:40;;;;;;;54.20;17.40;;;;;;;-3.74;100.00;103339.53;4998382;28;20037;-91
2023/01/22 01:31:08;;;;;;;55.95;18.85;;;;;;;-3.76;100.00;103336.94;4986244;28;20503;-92
2023/01/22 01:33:33;;;;;;;61.67;18.20;;;;;;;-3.76;100.00;103338.56;4983795;28;20033;-93
2023/01/22 01:36:03;;;;;;;59.08;18.33;;;;;;;-3.90;100.00;103314.75;4985562;28;20029;-93
2023/01/22 01:38:29;;;;;;;56.40;18.40;;;;;;;-3.92;100.00;103311.22;4985136;28;20030;-92
2023/01/22 01:40:55;;;;;;;61.75;18.55;;;;;;;-3.85;100.00;103327.75;4996636;28;20069;-92
2023/01/22 01:43:24;;;;;;;57.72;16.83;;;;;;;-3.87;100.00;103316.59;5000321;28;20030;-93
2023/01/22 01:45:49;;;;;;;65.35;18.50;;;;;;;-3.78;100.00;103324.91;5003474;28;20042;-93
2023/01/22 01:48:21;;;;;;;53.47;17.65;;;;;;;-3.79;100.00;103324.00;5000497;28;20080;-93
2023/01/22 01:50:52;;;;;;;61.60;17.80;;;;;;;-3.85;100.00;103312.53;5002076;28;20059;-92
2023/01/22 01:53:18;;;;;;;61.53;18.38;;;;;;;-3.94;100.00;103294.13;4983981;28;20334;-92
2023/01/22 01:55:46;;;;;;;54.03;18.25;;;;;;;-3.85;100.00;103308.38;4984399;28;20418;-93
2023/01/22 01:58:20;;;;;;;57.15;17.92;;;;;;;-3.91;100.00;103291.81;4999682;28;20479;-94
2023/01/22 02:00:50;;;;;;;61.13;19.48;;;;;;;-3.95;100.00;103289.81;4996905;28;20030;-93
2023/01/22 02:03:18;;;;;;;62.10;19.00;;;;;;;-3.89;100.00;103295.38;4995743;28;20038;-92
2023/01/22 02:05:51;;;;;;;60.05;17.95;;;;;;;-3.93;100.00;103279.03;4996698;28;21422;-92
2023/01/22 02:08:20;;;;;;;58.05;17.83;;;;;;;-3.82;100.00;103298.44;4983189;28;20510;-93
2023/01/22 02:10:45;;;;;;;57.25;17.98;;;;;;;-4.02;100.00;103261.50;4997969;28;20026;-92
2023/01/22 02:13:18;;;;;;;51.63;17.80;;;;;;;-4.03;100.00;103269.03;4999696;28;20026;-93
2023/01/22 02:15:46;;;;;;;56.50;17.45;;;;;;;-4.01;100.00;103270.00;4995404;28;20026;-93
2023/01/22 02:18:12;;;;;;;59.63;18.17;;;;;;;-4.02;100.00;103278.34;4992553;28;20037;-93
2023/01/22 02:20:39;;;;;;;53.97;17.77;;;;;;;-3.92;100.00;103296.00;4985905;28;20042;-93
2023/01/22 02:23:05;;;;;;;62.63;19.75;;;;;;;-3.93;100.00;103295.88;4997188;28;20026;-93
2023/01/22 02:25:32;;;;;;;58.45;18.40;;;;;;;-4.02;100.00;103291.00;4988314;28;20040;-93
2023/01/22 02:28:00;;;;;;;52.95;18.20;;;;;;;-3.94;100.00;103295.00;4981421;28;20027;-93
2023/01/22 02:30:29;;;;;;;61.75;18.45;;;;;;;-3.92;100.00;103280.81;4985257;28;20118;-93
2023/01/22 02:32:54;;;;;;;61.53;18.30;;;;;;;-3.78;100.00;103270.03;4993800;28;20034;-93
2023/01/22 02:35:20;;;;;;;65.93;19.83;;;;;;;-3.52;100.00;103299.81;4980426;28;20100;-93
2023/01/22 02:37:45;;;;;;;63.90;18.38;;;;;;;-3.47;100.00;103284.91;4995489;28;20104;-93
2023/01/22 02:40:14;;;;;;;56.60;17.73;;;;;;;-3.43;100.00;103274.25;4982964;28;20030;-92
2023/01/22 02:42:40;;;;;;;61.28;18.85;;;;;;;-3.26;100.00;103294.97;4976293;28;20121;-94
2023/01/22 02:45:06;;;;;;;59.70;18.58;;;;;;;-3.15;100.00;103297.41;4986884;28;20033;-93
2023/01/22 02:47:35;;;;;;;60.42;17.73;;;;;;;-3.15;100.00;103290.66;4997292;28;20038;-93
2023/01/22 02:50:03;;;;;;;68.38;18.83;;;;;;;-3.09;100.00;103292.75;4995057;28;20033;-93
2023/01/22 02:52:29;;;;;;;62.35;18.92;;;;;;;-2.96;100.00;103310.59;4982213;28;20050;-94
2023/01/22 02:54:54;;;;;;;62.55;19.02;;;;;;;-2.94;100.00;103304.88;4986039;28;20056;-93
2023/01/22 02:57:23;;;;;;;59.45;18.52;;;;;;;-2.93;100.00;103290.50;4985678;28;20080;-92
2023/01/22 02:59:48;;;;;;;59.03;18.35;;;;;;;-2.85;100.00;103308.03;4997964;28;20030;-93
2023/01/22 03:02:14;;;;;;;60.88;18.42;;;;;;;-2.81;100.00;103297.34;4983253;28;20023;-93
2023/01/22 03:04:39;;;;;;;55.30;17.90;;;;;;;-2.78;100.00;103300.06;5001333;28;20029;-93
2023/01/22 03:07:05;;;;;;;53.45;16.95;;;;;;;-2.69;100.00;103297.31;4985044;28;20049;-93
2023/01/22 03:09:30;;;;;;;57.13;18.10;;;;;;;-2.69;100.00;103293.88;4983327;28;20102;-93
2023/01/22 03:11:56;;;;;;;51.08;17.17;;;;;;;-2.66;100.00;103292.44;5002656;28;20030;-93
2023/01/22 03:22:36;;;;;;;53.47;18.15;;;;;;;-2.41;100.00;103303.50;5002142;28;20065;-93
2023/01/22 03:25:02;;;;;;;49.63;18.27;;;;;;;-2.57;100.00;103267.69;4996032;28;20022;-93
2023/01/22 03:27:30;;;;;;;52.03;18.27;;;;;;;-2.41;100.00;103282.31;4984072;28;20030;-93
2023/01/22 03:29:57;;;;;;;53.13;18.50;;;;;;;-2.36;100.00;103287.69;4984165;28;20586;-94
2023/01/22 03:32:24;;;;;;;47.85;17.70;;;;;;;-2.42;100.00;103283.97;5000364;28;20156;-93
2023/01/22 03:34:50;;;;;;;45.58;16.88;;;;;;;-2.52;100.00;103283.22;4984456;28;20406;-93
2023/01/22 03:37:15;;;;;;;49.13;17.17;;;;;;;-2.63;100.00;103274.88;5001728;28;20554;-93
2023/01/22 03:39:41;;;;;;;46.63;16.52;;;;;;;-2.71;100.00;103273.47;4998534;28;20049;-93
2023/01/22 03:42:07;;;;;;;47.67;16.55;;;;;;;-2.81;100.00;103260.94;5002027;28;20133;-93
2023/01/22 03:44:33;;;;;;;47.35;16.05;;;;;;;-2.85;100.00;103264.00;4996781;28;20116;-94
2023/01/22 03:46:58;;;;;;;42.42;16.10;;;;;;;-2.97;100.00;103248.81;4987965;28;20026;-93
2023/01/22 03:49:27;;;;;;;48.22;16.65;;;;;;;-2.99;100.00;103260.50;5000609;28;20026;-93
2023/01/22 03:51:52;;;;;;;45.15;17.08;;;;;;;-3.17;100.00;103233.00;4999436;28;20030;-92
2023/01/22 03:54:18;;;;;;;47.47;16.45;;;;;;;-3.07;100.00;103256.56;4998536;28;20037;-94
2023/01/22 03:56:43;;;;;;;47.20;16.38;;;;;;;-3.21;100.00;103231.91;4986293;28;20488;-94
2023/01/22 03:59:10;;;;;;;46.45;16.85;;;;;;;-3.20;100.00;103236.19;5003176;28;20105;-92
2023/01/22 04:01:37;;;;;;;52.92;18.02;;;;;;;-3.09;100.00;103260.66;4982833;28;20037;-94
2023/01/22 04:04:03;;;;;;;45.90;16.38;;;;;;;-3.08;100.00;103257.34;4988819;28;20083;-92
2023/01/22 04:06:29;;;;;;;44.50;15.88;;;;;;;-3.08;100.00;103247.22;5001410;28;20399;-93
2023/01/22 04:08:54;;;;;;;48.50;16.75;;;;;;;-3.00;100.00;103258.75;4980742;28;20022;-93
2023/01/22 04:11:21;;;;;;;53.00;18.38;;;;;;;-2.97;100.00;103258.97;4972380;28;20442;-94
2023/01/22 04:13:47;;;;;;;52.70;17.85;;;;;;;-2.85;100.00;103258.94;4989119;28;20057;-94
2023/01/22 04:16:15;;;;;;;54.88;19.10;;;;;;;-2.74;100.00;103262.25;4963006;28;20396;-93
2023/01/22 04:18:43;;;;;;;51.45;16.98;;;;;;;-2.69;100.00;103248.19;4994389;28;20114;-93
2023/01/22 04:21:08;;;;;;;51.20;17.13;;;;;;;-2.61;100.00;103253.03;4976844;28;20033;-93
2023/01/22 04:23:34;;;;;;;53.42;17.38;;;;;;;-2.53;100.00;103256.09;4976035;28;20030;-93
2023/01/22 04:26:03;;;;;;;57.58;19.23;;;;;;;-2.43;100.00;103251.72;4977045;28;20060;-95
2023/01/22 04:28:31;;;;;;;50.67;16.73;;;;;;;-2.41;100.00;103245.09;4992015;28;20030;-93
2023/01/22 04:30:56;;;;;;;51.03;16.70;;;;;;;-2.32;100.00;103257.50;4978218;28;20057;-92
2023/01/22 04:33:22;;;;;;;47.28;16.90;;;;;;;-2.31;100.00;103248.25;4977947;28;20023;-93
2023/01/22 04:35:50;;;;;;;42.33;15.57;;;;;;;-2.26;100.00;103249.44;4969927;28;20053;-93
2023/01/22 04:38:16;;;;;;;48.78;16.05;;;;;;;-2.21;100.00;103253.19;4967820;28;20122;-93
2023/01/22 04:40:41;;;;;;;46.22;16.02;;;;;;;-2.18;100.00;103253.34;4993728;28;20105;-93
2023/01/22 04:43:08;;;;;;;44.30;16.10;;;;;;;-2.22;100.00;103237.06;4991604;28;20122;-93
2023/01/22 04:45:34;;;;;;;45.03;16.38;;;;;;;-2.16;100.00;103242.53;4988684;28;20405;-94
2023/01/22 04:48:00;;;;;;;44.80;16.48;;;;;;;-2.12;100.00;103243.63;4986513;28;20475;-93
2023/01/22 04:50:29;;;;;;;46.90;15.45;;;;;;;-2.10;100.00;103242.06;4975652;28;20018;-93
2023/01/22 04:52:55;;;;;;;43.15;14.80;;;;;;;-2.09;100.00;103248.91;4975828;28;20034;-93
2023/01/22 04:55:21;;;;;;;40.80;14.60;;;;;;;-2.09;100.00;103247.25;4986493;28;20085;-93
2023/01/22 04:57:47;;;;;;;45.22;16.95;;;;;;;-2.10;100.00;103236.97;4974863;28;20038;-93
2023/01/22 05:00:13;;;;;;;39.78;14.32;;;;;;;-2.07;100.00;103260.06;4992886;28;20029;-94
2023/01/22 05:02:39;;;;;;;43.70;16.10;;;;;;;-2.10;100.00;103242.94;4969847;28;20039;-92
2023/01/22 05:05:06;;;;;;;40.40;14.70;;;;;;;-2.06;100.00;103249.13;4988997;28;20637;-93
2023/01/22 05:07:31;;;;;;;39.08;13.35;;;;;;;-2.04;100.00;103245.00;4974101;28;20117;-94
2023/01/22 05:09:56;;;;;;;39.63;13.43;;;;;;;-2.03;100.00;103244.22;4964320;28;20109;-92
2023/01/22 05:12:22;;;;;;;29.15;10.95;;;;;;;-2.05;100.00;103241.56;4975759;28;20109;-93
2023/01/22 05:14:47;;;;;;;35.20;13.30;;;;;;;-2.01;100.00;103247.75;4993125;28;20121;-93
2023/01/22 05:17:13;;;;;;;36.80;12.77;;;;;;;-2.03;100.00;103246.75;4989792;28;20029;-93
2023/01/22 05:19:38;;;;;;;37.15;15.27;;;;;;;-2.04;100.00;103242.44;4985026;28;20046;-92
2023/01/22 05:22:04;;;;;;;33.03;11.70;;;;;;;-2.01;100.00;103248.63;4974546;28;20026;-93
2023/01/22 05:24:29;;;;;;;37.25;13.13;;;;;;;-2.04;100.00;103245.88;4991858;28;20427;-93
2023/01/22 05:26:54;;;;;;;35.60;12.55;;;;;;;-2.03;100.00;103264.53;4991131;28;20088;-93
2023/01/22 05:29:24;;;;;;;41.05;13.63;;;;;;;-2.01;100.00;103255.38;4971858;28;20030;-93
2023/01/22 05:31:54;;;;;;;34.58;13.30;;;;;;;-2.00;100.00;103259.69;4987750;28;20025;-92
2023/01/22 05:34:20;;;;;;;42.20;14.43;;;;;;;-2.06;100.00;103252.53;4985803;28;20026;-92
2023/01/22 05:36:45;;;;;;;38.25;13.23;;;;;;;-2.00;100.00;103259.69;4975273;28;20033;-93
2023/01/22 05:39:11;;;;;;;36.85;14.07;;;;;;;-1.99;100.00;103266.53;4963803;28;20032;-93
2023/01/22 05:41:37;;;;;;;35.75;12.57;;;;;;;-1.93;100.00;103264.38;4983207;28;20085;-93
2023/01/22 05:44:03;;;;;;;38.30;14.38;;;;;;;-1.93;100.00;103272.00;4988025;28;20109;-93
2023/01/22 05:46:29;;;;;;;37.97;14.25;;;;;;;-1.90;100.00;103274.75;4982173;28;20038;-93
2023/01/22 05:48:55;;;;;;;39.40;14.25;;;;;;;-1.88;100.00;103277.38;4992206;28;20025;-92
2023/01/22 05:51:22;;;;;;;38.10;13.23;;;;;;;-1.90;100.00;103264.56;4985681;28;20033;-94
2023/01/22 05:53:47;;;;;;;33.88;12.88;;;;;;;-1.87;100.00;103271.53;4968867;28;20150;-93
2023/01/22 05:56:13;;;;;;;42.17;15.15;;;;;;;-1.87;100.00;103261.38;4989310;28;20025;-93
2023/01/22 05:58:38;;;;;;;38.30;15.15;;;;;;;-1.84;100.00;103274.28;4984468;28;20052;-93
2023/01/22 06:01:05;;;;;;;36.55;13.35;;;;;;;-1.85;100.00;103275.94;4983782;28;20535;-95
2023/01/22 06:03:30;;;;;;;39.28;14.43;;;;;;;-1.80;100.00;103279.66;4974398;28;20595;-94
2023/01/22 06:06:00;;;;;;;37.60;13.40;;;;;;;-1.77;100.00;103279.84;4989592;28;20037;-93
2023/01/22 06:08:27;;;;;;;37.42;13.50;;;;;;;-1.77;100.00;103274.75;4983868;28;20026;-93
2023/01/22 06:11:00;;;;;;;42.60;14.57;;;;;;;-1.78;100.00;103255.22;4974539;28;20483;-92
2023/01/22 06:13:26;;;;;;;37.10;13.57;;;;;;;-1.76;100.00;103263.81;4988843;28;20484;-93
2023/01/22 06:15:52;;;;;;;39.10;15.63;;;;;;;-1.75;100.00;103279.94;4991432;28;20034;-92
2023/01/22 06:18:18;;;;;;;41.35;13.82;;;;;;;-1.77;100.00;103274.75;4974220;28;20031;-93
2023/01/22 06:20:43;;;;;;;34.35;13.70;;;;;;;-1.72;100.00;103278.50;4969096;28;20034;-92
2023/01/22 06:23:09;;;;;;;38.60;14.60;;;;;;;-1.72;100.00;103263.25;4975979;28;20105;-94
2023/01/22 06:25:34;;;;;;;40.00;14.35;;;;;;;-1.77;100.00;103266.25;4969425;28;20030;-92
2023/01/22 06:27:59;;;;;;;38.83;13.80;;;;;;;-1.78;100.00;103267.06;4986758;28;20077;-93
2023/01/22 06:30:25;;;;;;;38.53;14.60;;;;;;;-1.71;100.00;103277.72;4988552;28;20133;-93
2023/01/22 06:32:56;;;;;;;43.88;16.13;;;;;;;-1.71;100.00;103275.19;4987803;28;20066;-92
2023/01/22 06:35:21;;;;;;;38.60;14.25;;;;;;;-1.68;100.00;103272.81;4963905;28;20029;-92
2023/01/22 06:37:47;;;;;;;39.30;12.75;;;;;;;-1.69;100.00;103270.19;4981451;28;20030;-93
2023/01/22 06:40:12;;;;;;;37.72;14.40;;;;;;;-1.68;100.00;103274.47;4991110;28;20026;-92
2023/01/22 06:42:38;;;;;;;39.38;14.48;;;;;;;-1.67;100.00;103273.72;4981028;28;20125;-91
2023/01/22 06:45:04;;;;;;;37.55;14.18;;;;;;;-1.75;100.00;103264.69;4993760;28;20030;-92
2023/01/22 06:47:29;;;;;;;38.53;14.13;;;;;;;-1.68;100.00;103277.91;4973291;28;20511;-92
2023/01/22 06:49:55;;;;;;;39.17;13.80;;;;;;;-1.67;100.00;103284.75;4985536;28;20022;-92
2023/01/22 06:52:20;;;;;;;41.90;14.82;;;;;;;-1.70;100.00;103279.47;4999573;28;20022;-92
2023/01/22 06:54:45;;;;;;;34.63;13.48;;;;;;;-1.66;100.00;103278.00;4990880;28;20368;-91
2023/01/22 06:57:11;;;;;;;40.78;14.25;;;;;;;-1.65;100.00;103275.59;4991239;28;20038;-92
2023/01/22 06:59:36;;;;;;;42.45;14.25;;;;;;;-1.65;100.00;103285.75;4968414;28;20035;-92
2023/01/22 07:02:01;;;;;;;39.33;14.13;;;;;;;-1.67;100.00;103282.22;4987225;28;20026;-92
2023/01/22 07:04:27;;;;;;;36.47;13.65;;;;;;;-1.61;100.00;103287.69;4971586;28;20019;-92
2023/01/22 07:06:52;;;;;;;38.88;13.98;;;;;;;-1.58;100.00;103293.78;4972766;28;20371;-92
2023/01/22 07:09:17;;;;;;;37.33;13.52;;;;;;;-1.56;100.00;103289.66;4983236;28;20019;-91
2023/01/22 07:11:42;;;;;;;39.05;13.40;;;;;;;-1.56;100.00;103282.91;4990377;28;20038;-91
2023/01/22 07:14:08;;;;;;;38.58;13.38;;;;;;;-1.56;100.00;103279.47;4993203;28;20072;-92
2023/01/22 07:16:33;;;;;;;37.97;14.75;;;;;;;-1.56;100.00;103282.91;4993085;28;20215;-93
2023/01/22 07:18:59;;;;;;;40.20;13.32;;;;;;;-1.51;100.00;103289.19;4970785;28;20026;-92
2023/01/22 07:21:25;;;;;;;39.88;13.20;;;;;;;-1.48;100.00;103283.41;4987521;28;20026;-92
2023/01/22 07:23:51;;;;;;;39.95;13.50;;;;;;;-1.56;100.00;103277.81;4990392;28;20112;-92
2023/01/22 07:26:16;;;;;;;38.08;14.18;;;;;;;-1.50;100.00;103287.53;4983980;28;20185;-92
2023/01/22 07:28:43;;;;;;;36.13;14.00;;;;;;;-1.47;100.00;103285.16;4986011;28;20487;-92
2023/01/22 07:31:09;;;;;;;35.25;13.13;;;;;;;-1.49;100.00;103284.16;4984115;28;20435;-92
2023/01/22 07:33:35;;;;;;;40.53;15.10;;;;;;;-1.50;100.00;103284.97;4994217;28;20034;-93
2023/01/22 07:36:00;;;;;;;32.15;12.60;;;;;;;-1.48;100.00;103283.41;4990966;28;20034;-92
2023/01/22 07:38:26;;;;;;;36.90;13.30;;;;;;;-1.49;100.00;103286.72;4976776;28;20404;-92
2023/01/22 07:40:52;;;;;;;36.78;14.95;;;;;;;-1.45;100.00;103289.56;4990305;28;20038;-93
2023/01/22 07:43:17;;;;;;;32.80;12.63;;;;;;;-1.42;100.00;103293.97;4992872;28;20169;-93
2023/01/22 07:45:43;;;;;;;37.03;13.98;;;;;;;-1.41;100.00;103290.63;4986636;28;20396;-92
2023/01/22 07:48:09;;;;;;;35.80;13.15;;;;;;;-1.40;100.00;103292.41;4970978;28;20526;-92
2023/01/22 07:50:38;;;;;;;34.97;12.50;;;;;;;-1.39;100.00;103289.97;4990812;28;20076;-92
2023/01/22 07:53:04;;;;;;;33.92;13.18;;;;;;;-1.36;100.00;103291.81;4984954;28;20029;-92
2023/01/22 07:55:30;;;;;;;32.90;12.52;;;;;;;-1.35;100.00;103286.81;4983362;28;20030;-91
2023/01/22 07:58:04;;;;;;;34.88;13.25;;;;;;;-1.35;100.00;103294.47;4970015;28;20117;-93
2023/01/22 08:00:30;;;;;;;;;;;;;;;-1.25;100.00;103301.91;4984792;28;20073;-94
2023/01/22 08:02:55;;;;;;;33.95;12.80;;;;;;;-1.25;100.00;103299.38;4972915;28;19957;-92
2023/01/22 08:05:21;;;;;;;32.95;12.10;;;;;;;-1.17;100.00;103302.41;4976545;28;20121;-93
2023/01/22 08:07:47;;;;;;;33.38;12.10;;;;;;;-1.15;100.00;103305.91;4973510;28;20057;-91
2023/01/22 08:10:13;;;;;;;31.55;12.02;;;;;;;-1.11;100.00;103304.44;4988980;28;20058;-92
2023/01/22 08:12:40;;;;;;;32.05;11.93;;;;;;;-1.07;100.00;103314.03;4993168;28;20073;-92
2023/01/22 08:15:07;;;;;;;32.08;12.07;;;;;;;-1.06;100.00;103301.41;4986901;28;20022;-92
2023/01/22 08:17:32;;;;;;;29.75;11.70;;;;;;;-1.05;100.00;103302.28;4994567;28;20495;-92
2023/01/22 08:19:58;;;;;;;32.47;12.45;;;;;;;-0.98;100.00;103319.69;4972289;28;20027;-91
2023/01/22 08:22:23;;;;;;;25.20;9.85;;;;;;;-0.91;100.00;103311.66;4982814;28;20045;-93
2023/01/22 08:24:48;;;;;;;28.80;11.20;;;;;;;-0.89;100.00;103316.03;4964674;28;20023;-91
2023/01/22 08:27:14;;;;;;;27.38;11.10;;;;;;;-0.84;100.00;103308.72;4986560;28;20038;-91
2023/01/22 08:29:39;;;;;;;30.10;11.98;;;;;;;-0.80;100.00;103316.63;4982672;28;20134;-92
2023/01/22 08:32:05;;;;;;;29.90;11.82;;;;;;;-0.77;100.00;103317.63;4984563;28;20612;-93
2023/01/22 08:34:31;;;;;;;28.77;11.23;;;;;;;-0.78;100.00;103318.41;4989907;28;20114;-92
2023/01/22 08:36:56;;;;;;;25.60;10.63;;;;;;;-0.71;100.00;103320.53;4967854;28;20114;-92
2023/01/22 08:39:22;;;;;;;30.08;10.90;;;;;;;-0.62;100.00;103321.13;4977942;28;20081;-92
2023/01/22 08:41:47;;;;;;;25.85;10.57;;;;;;;-0.61;100.00;103310.09;4989492;28;20038;-92
2023/01/22 08:44:12;;;;;;;25.80;9.70;;;;;;;-0.59;100.00;103313.66;4967516;28;20121;-92
2023/01/22 08:46:39;;;;;;;27.08;10.00;;;;;;;-0.57;100.00;103307.00;4976339;28;20049;-91
2023/01/22 08:49:06;;;;;;;24.45;9.57;;;;;;;-0.57;100.00;103314.63;4993513;28;20022;-93
2023/01/22 08:51:32;;;;;;;27.83;9.95;;;;;;;-0.59;100.00;103303.47;4991381;28;20574;-92
2023/01/22 08:53:57;;;;;;;26.42;10.02;;;;;;;-0.54;100.00;103317.34;4970190;28;20062;-92
2023/01/22 08:56:22;;;;;;;24.25;10.10;;;;;;;-0.55;100.00;103318.16;4970985;28;20397;-92
2023/01/22 08:58:49;;;;;;;25.60;9.88;;;;;;;-0.54;100.00;103319.88;4972240;28;20054;-91
2023/01/22 09:01:18;;;;;;;26.48;10.27;;;;;;;-0.59;100.00;103311.97;4988768;28;20085;-92
2023/01/22 09:03:44;;;;;;;27.15;10.07;;;;;;;-0.64;100.00;103328.66;4987473;28;20085;-93
2023/01/22 09:06:10;;;;;;;24.25;9.27;;;;;;;-0.74;100.00;103321.22;4972875;28;20026;-92
2023/01/22 09:08:35;;;;;;;27.95;10.00;;;;;;;-0.73;100.00;103324.66;4987024;28;20029;-92
2023/01/22 09:11:05;;;;;;;23.27;9.18;;;;;;;-0.73;100.00;103329.72;5004165;28;20088;-91
2023/01/22 09:13:30;;;;;;;26.83;10.10;;;;;;;-0.69;100.00;103329.16;4969486;28;20030;-92
2023/01/22 09:15:56;;;;;;;21.90;9.82;;;;;;;-0.71;100.00;103326.50;4987168;28;20030;-91
2023/01/22 09:18:21;;;;;;;24.17;10.43;;;;;;;-0.71;100.00;103326.50;4987521;28;20034;-92
2023/01/22 09:20:47;;;;;;;27.50;11.48;;;;;;;-0.72;100.00;103329.84;4972126;28;20070;-91
2023/01/22 09:23:12;;;;;;;26.40;10.07;;;;;;;-0.74;100.00;103330.53;4993165;28;20022;-91
2023/01/22 09:25:37;;;;;;;24.10;9.75;;;;;;;-0.73;100.00;103322.09;4992662;28;20451;-92
2023/01/22 09:28:06;;;;;;;25.33;9.52;;;;;;;-0.70;100.00;103327.41;4974688;28;20054;-91
2023/01/22 09:30:31;;;;;;;25.17;10.18;;;;;;;-0.69;100.00;103322.41;4982459;28;20078;-91
2023/01/22 09:32:57;;;;;;;26.02;10.10;;;;;;;-0.63;100.00;103332.09;4992230;28;20054;-91
2023/01/22 09:35:23;;;;;;;24.13;10.55;;;;;;;-0.60;100.00;103333.13;4983133;28;20034;-91
2023/01/22 09:37:48;;;;;;;24.60;10.10;;;;;;;-0.53;100.00;103321.66;4984287;28;20034;-91
2023/01/22 09:40:30;;;;;;;27.52;11.27;;;;;;;-0.39;100.00;103336.13;4989432;28;20137;-91
2023/01/22 09:43:05;;;;;;;24.65;9.90;;;;;;;-0.34;100.00;103332.16;4989396;28;20026;-91
2023/01/22 09:45:33;;;;;;;24.45;10.23;;;;;;;-0.22;100.00;103342.25;4980896;28;20057;-90
2023/01/22 09:48:01;;;;;;;25.58;10.88;;;;;;;-0.16;100.00;103343.50;4992415;28;20045;-91
2023/01/22 09:50:30;;;;;;;26.38;9.90;;;;;;;-0.19;100.00;103337.31;4996484;28;20076;-92
2023/01/22 09:53:00;;;;;;;26.15;9.80;;;;;;;-0.20;100.00;103349.19;4990309;28;20037;-91
2023/01/22 09:55:30;;;;;;;27.45;10.75;;;;;;;-0.21;100.00;103344.00;4990095;28;20392;-90
2023/01/22 09:57:58;;;;;;;23.90;9.52;;;;;;;-0.21;100.00;103346.56;4970425;28;20022;-90
2023/01/22 10:00:38;;;;;;;24.52;10.68;;;;;;;-0.23;100.00;103345.56;4990105;28;20062;-90
2023/01/22 10:03:24;;;;;;;22.65;9.85;;;;;;;-0.27;100.00;103341.09;4991142;28;20033;-91
2023/01/22 10:06:17;;;;;;;24.42;10.00;;;;;;;-0.26;100.00;103346.25;4971430;28;20423;-91
2023/01/22 10:09:15;;;;;;;24.80;10.55;;;;;;;-0.25;100.00;103349.69;4979430;28;20072;-90
2023/01/22 10:11:44;;;;;;;30.90;10.55;;;;;;;-0.27;100.00;103343.66;4995842;28;20025;-90
2023/01/22 10:14:14;;;;;;;24.25;10.00;;;;;;;-0.25;100.00;103349.69;4987192;28;20495;-90
2023/01/22 10:16:40;;;;;;;25.23;10.25;;;;;;;-0.26;100.00;103348.81;4958819;28;20054;-90
2023/01/22 10:19:15;;;;;;;23.08;9.75;;;;;;;-0.28;100.00;103357.16;4971644;28;20079;-91
2023/01/22 10:21:46;;;;;;;25.48;9.38;;;;;;;-0.28;100.00;103352.97;4989015;28;20030;-91
2023/01/22 10:24:12;;;;;;;22.52;9.25;;;;;;;-0.32;100.00;103340.78;4981627;28;20114;-90
2023/01/22 10:26:38;;;;;;;22.10;9.48;;;;;;;-0.25;100.00;103345.47;4988539;28;20053;-90
2023/01/22 10:29:09;;;;;;;27.80;10.70;;;;;;;-0.22;100.00;103342.25;4972353;28;20062;-90
2023/01/22 10:31:39;;;;;;;21.60;9.32;;;;;;;-0.18;100.00;103346.72;4986388;28;20042;-90
2023/01/22 10:34:30;;;;;;;26.05;10.68;;;;;;;-0.19;100.00;103334.75;4990686;28;20037;-90
2023/01/22 10:37:00;;;;;;;23.60;9.88;;;;;;;-0.20;100.00;103345.75;4964081;28;20030;-90
2023/01/22 10:39:26;;;;;;;22.77;10.25;;;;;;;-0.24;100.00;103342.16;4987715;28;20041;-90
2023/01/22 10:42:01;;;;;;;23.35;9.82;;;;;;;-0.25;100.00;103339.50;4983159;28;20033;-91
2023/01/22 10:44:27;;;;;;;25.33;10.15;;;;;;;-0.24;100.00;103343.81;4988032;28;20408;-90
2023/01/22 10:46:53;;;;;;;22.88;10.18;;;;;;;-0.23;100.00;103348.13;4982272;28;20537;-90
2023/01/22 10:49:22;;;;;;;22.55;9.38;;;;;;;-0.22;100.00;103344.78;4993029;28;20027;-90
2023/01/22 10:51:58;;;;;;;22.85;9.98;;;;;;;-0.22;100.00;103349.91;4986762;28;20026;-90
2023/01/22 10:54:30;;;;;;;23.33;10.30;;;;;;;-0.21;100.00;103344.91;4988842;28;20053;-91
2023/01/22 10:57:26;;;;;;;24.33;9.73;;;;;;;-0.17;100.00;103348.50;4994182;28;20062;-91
2023/01/22 11:00:14;;;;;;;22.65;9.88;;;;;;;-0.17;100.00;103346.81;4977735;28;20043;-92
2023/01/22 11:02:45;;;;;;;24.70;10.02;;;;;;;-0.19;100.00;103339.88;4961314;28;20054;-91
2023/01/22 11:05:33;;;;;;;22.08;9.13;;;;;;;-0.15;100.00;103334.19;4994333;28;20034;-90
2023/01/22 11:08:03;;;;;;;19.63;9.70;;;;;;;-0.13;100.00;103330.91;4961881;28;20128;-92
2023/01/22 11:10:47;;;;;;;22.05;9.98;;;;;;;-0.01;100.00;103341.88;4999225;28;20030;-91
2023/01/22 11:13:18;;;;;;;19.98;9.05;;;;;;;0.02;100.00;103342.81;4987804;28;20411;-91